Time;durP1;ratioP1;P1;durP2;ratioP2;P2;SDS_P1;SDS_P2;PMS_P1;PMS_P2;Temp;Humidity;BMP_temperature;BMP_pressure;BME280_temperature;BME280_humidity;BME280_pressure;Samples;Min_cycle;Max_cycle;Signal;HPM_P1;HPM_P2
2021/01/01 00:00:46;;;;;;;21.35;14.60;;;;;;;;;;5093108;28;20036;-72
2021/01/01 00:03:11;;;;;;;22.10;13.48;;;;;;;;;;5093697;28;20542;-71
2021/01/01 00:05:37;;;;;;;19.10;13.02;;;;;;;;;;5092725;28;20044;-72
2021/01/01 00:08:03;;;;;;;21.40;14.52;;;;;;;;;;5093397;28;20095;-72
2021/01/01 00:10:32;;;;;;;23.55;14.48;;;;;;;;;;5091342;28;20111;-72
2021/01/01 00:12:57;;;;;;;18.85;14.15;;;;;;;;;;5092767;28;20130;-72
2021/01/01 00:15:22;;;;;;;21.05;14.90;;;;;;;;;;5093289;28;20474;-72
2021/01/01 00:17:48;;;;;;;22.75;14.45;;;;;;;;;;5091378;28;20101;-73
2021/01/01 00:20:13;;;;;;;19.50;12.80;;;;;;;;;;5093484;28;20038;-72
2021/01/01 00:22:41;;;;;;;18.55;12.57;;;;;;;;;;5093436;28;20060;-73
2021/01/01 00:25:09;;;;;;;19.58;13.55;;;;;;;;;;5092462;28;20048;-72
2021/01/01 00:27:35;;;;;;;15.65;11.77;;;;;;;;;;5093359;28;20542;-72
2021/01/01 00:30:01;;;;;;;23.38;13.70;;;;;;;;;;5092667;28;20131;-73
2021/01/01 00:32:26;;;;;;;18.33;11.98;;;;;;;;;;5093081;28;20122;-72
2021/01/01 00:34:52;;;;;;;19.17;12.52;;;;;;;;;;5092383;28;20047;-72
2021/01/01 00:37:17;;;;;;;18.42;12.43;;;;;;;;;;5093179;28;20032;-72
2021/01/01 00:39:43;;;;;;;19.67;13.27;;;;;;;;;;5092416;28;20085;-72
2021/01/01 00:42:08;;;;;;;29.02;16.52;;;;;;;;;;5091797;28;20476;-72
2021/01/01 00:44:34;;;;;;;22.38;14.35;;;;;;;;;;5092225;28;20056;-72
2021/01/01 00:47:00;;;;;;;22.73;15.10;;;;;;;;;;5091643;28;20034;-72
2021/01/01 00:49:26;;;;;;;20.65;12.70;;;;;;;;;;5091954;28;20032;-72
2021/01/01 00:51:52;;;;;;;17.35;11.65;;;;;;;;;;5093035;28;20040;-72
2021/01/01 00:54:17;;;;;;;17.42;11.43;;;;;;;;;;5093263;28;20115;-72
2021/01/01 00:56:43;;;;;;;17.75;10.85;;;;;;;;;;5092296;28;20115;-72
2021/01/01 00:59:08;;;;;;;14.32;10.45;;;;;;;;;;5092969;28;20043;-73
2021/01/01 01:01:33;;;;;;;18.13;10.93;;;;;;;;;;5092095;28;20031;-72
2021/01/01 01:03:59;;;;;;;18.63;11.30;;;;;;;;;;5091941;28;20359;-72
2021/01/01 01:06:26;;;;;;;17.02;11.48;;;;;;;;;;5092987;28;20028;-72
2021/01/01 01:08:52;;;;;;;16.45;11.10;;;;;;;;;;5091876;28;20040;-72
2021/01/01 01:11:25;;;;;;;18.27;11.02;;;;;;;;;;5092782;28;20054;-72
2021/01/01 01:13:54;;;;;;;15.10;10.32;;;;;;;;;;5092139;28;20032;-72
2021/01/01 01:16:24;;;;;;;15.75;10.65;;;;;;;;;;5093116;28;20530;-72
2021/01/01 01:18:50;;;;;;;13.77;9.35;;;;;;;;;;5092918;28;20039;-72
2021/01/01 01:21:16;;;;;;;13.50;9.48;;;;;;;;;;5092946;28;20385;-72
2021/01/01 01:23:41;;;;;;;14.10;10.15;;;;;;;;;;5092886;28;20483;-72
2021/01/01 01:26:06;;;;;;;16.20;11.82;;;;;;;;;;5092944;28;20040;-72
2021/01/01 01:28:32;;;;;;;15.68;10.63;;;;;;;;;;5093413;28;20040;-72
2021/01/01 01:30:57;;;;;;;16.13;11.02;;;;;;;;;;5096155;28;20032;-72
2021/01/01 01:33:23;;;;;;;17.25;11.68;;;;;;;;;;5096485;28;20044;-72
2021/01/01 01:35:48;;;;;;;16.77;11.30;;;;;;;;;;5096248;28;20117;-72
2021/01/01 01:38:13;;;;;;;15.25;10.80;;;;;;;;;;5096019;28;20040;-72
2021/01/01 01:40:39;;;;;;;16.38;11.32;;;;;;;;;;5096556;28;20032;-72
2021/01/01 01:43:04;;;;;;;17.55;11.70;;;;;;;;;;5096198;28;20052;-71
2021/01/01 01:45:29;;;;;;;18.67;12.02;;;;;;;;;;5096065;28;20089;-72
2021/01/01 01:47:58;;;;;;;15.50;10.25;;;;;;;;;;5094868;28;20428;-73
2021/01/01 01:50:24;;;;;;;16.23;10.50;;;;;;;;;;5096303;28;20040;-72
2021/01/01 01:52:50;;;;;;;14.75;10.40;;;;;;;;;;5095996;28;20022;-72
2021/01/01 01:55:16;;;;;;;16.55;10.05;;;;;;;;;;5096215;28;20438;-72
2021/01/01 01:57:41;;;;;;;17.33;10.25;;;;;;;;;;5095690;28;20032;-72
2021/01/01 02:00:52;;;;;;;17.98;11.48;;;;;;;;;;5096045;28;20076;-72
2021/01/01 02:02:59;;;;;;;16.33;11.75;;;;;;;;;;5092809;28;20440;-72
2021/01/01 02:05:26;;;;;;;19.25;12.70;;;;;;;;;;5096049;28;20080;-72
2021/01/01 02:07:51;;;;;;;15.82;11.20;;;;;;;;;;5095798;28;20097;-73
2021/01/01 02:10:19;;;;;;;18.50;11.88;;;;;;;;;;5095815;28;20107;-72
2021/01/01 02:12:44;;;;;;;16.20;10.93;;;;;;;;;;5095726;28;20438;-72
2021/01/01 02:15:10;;;;;;;14.85;10.43;;;;;;;;;;5094757;28;20132;-72
2021/01/01 02:17:35;;;;;;;16.85;12.13;;;;;;;;;;5095678;28;20059;-72
2021/01/01 02:20:09;;;;;;;15.73;11.38;;;;;;;;;;5094741;28;20087;-72
2021/01/01 02:22:38;;;;;;;18.52;11.57;;;;;;;;;;5094502;28;20064;-72
2021/01/01 02:25:05;;;;;;;17.80;12.20;;;;;;;;;;5094390;28;20088;-72
2021/01/01 02:27:30;;;;;;;16.90;12.40;;;;;;;;;;5095332;28;20024;-72
2021/01/01 02:29:55;;;;;;;17.55;11.77;;;;;;;;;;5095631;28;20043;-72
2021/01/01 02:32:21;;;;;;;18.95;12.57;;;;;;;;;;5095344;28;20043;-72
2021/01/01 02:34:46;;;;;;;18.33;12.07;;;;;;;;;;5094161;28;20035;-72
2021/01/01 02:37:11;;;;;;;17.10;11.00;;;;;;;;;;5095171;28;20108;-72
2021/01/01 02:39:37;;;;;;;15.23;10.15;;;;;;;;;;5093674;28;20453;-72
2021/01/01 02:42:04;;;;;;;15.48;10.27;;;;;;;;;;5094406;28;20032;-72
2021/01/01 02:44:30;;;;;;;15.02;10.50;;;;;;;;;;5095057;28;20557;-72
2021/01/01 02:47:05;;;;;;;17.45;10.70;;;;;;;;;;5095168;28;20089;-72
2021/01/01 02:49:31;;;;;;;16.43;11.10;;;;;;;;;;5095181;28;20359;-72
2021/01/01 02:51:58;;;;;;;19.45;13.00;;;;;;;;;;5095201;28;20036;-72
2021/01/01 02:54:23;;;;;;;18.83;12.05;;;;;;;;;;5094616;28;20043;-72
2021/01/01 02:56:48;;;;;;;17.05;11.68;;;;;;;;;;5093318;28;20047;-72
2021/01/01 02:59:14;;;;;;;18.90;12.80;;;;;;;;;;5094782;28;20038;-72
2021/01/01 03:01:39;;;;;;;16.83;11.90;;;;;;;;;;5093472;28;20451;-72
2021/01/01 03:04:05;;;;;;;16.40;11.63;;;;;;;;;;5094958;28;20040;-72
2021/01/01 03:06:30;;;;;;;17.13;11.05;;;;;;;;;;5094774;28;20066;-72
2021/01/01 03:08:55;;;;;;;15.70;11.18;;;;;;;;;;5094274;28;20036;-72
2021/01/01 03:11:21;;;;;;;18.85;12.18;;;;;;;;;;5094721;28;20535;-72
2021/01/01 03:13:46;;;;;;;20.23;13.32;;;;;;;;;;5094747;28;20420;-73
2021/01/01 03:16:12;;;;;;;19.55;12.63;;;;;;;;;;5094655;28;20107;-73
2021/01/01 03:18:37;;;;;;;21.13;13.35;;;;;;;;;;5094419;28;20454;-73
2021/01/01 03:21:04;;;;;;;22.73;12.95;;;;;;;;;;5094612;28;20040;-73
2021/01/01 03:23:29;;;;;;;21.27;13.45;;;;;;;;;;5094498;28;20114;-73
2021/01/01 03:25:54;;;;;;;17.25;12.68;;;;;;;;;;5093648;28;20070;-73
2021/01/01 03:28:20;;;;;;;21.33;12.50;;;;;;;;;;5093906;28;20193;-73
2021/01/01 03:30:45;;;;;;;21.08;13.45;;;;;;;;;;5094248;28;20028;-72
2021/01/01 03:33:11;;;;;;;21.00;14.25;;;;;;;;;;5094199;28;20115;-73
2021/01/01 03:35:36;;;;;;;23.45;14.35;;;;;;;;;;5094231;28;20048;-72
2021/01/01 03:38:02;;;;;;;20.38;13.10;;;;;;;;;;5093924;28;20063;-73
2021/01/01 03:40:27;;;;;;;20.77;13.65;;;;;;;;;;5094039;28;20039;-72
2021/01/01 03:42:53;;;;;;;26.55;14.75;;;;;;;;;;5093848;28;20474;-72
2021/01/01 03:45:18;;;;;;;23.83;15.85;;;;;;;;;;5093861;28;20128;-72
2021/01/01 03:47:44;;;;;;;23.00;15.48;;;;;;;;;;5093118;28;20028;-72
2021/01/01 03:50:09;;;;;;;27.25;15.82;;;;;;;;;;5094060;28;20523;-72
2021/01/01 03:52:35;;;;;;;27.33;16.27;;;;;;;;;;5093487;28;20416;-72
2021/01/01 03:55:00;;;;;;;28.70;16.88;;;;;;;;;;5093774;28;20032;-72
2021/01/01 03:57:26;;;;;;;25.05;15.98;;;;;;;;;;5092121;28;20454;-72
2021/01/01 03:59:51;;;;;;;28.35;16.38;;;;;;;;;;5093822;28;20047;-72
2021/01/01 04:02:16;;;;;;;22.67;13.93;;;;;;;;;;5093705;28;20031;-72
2021/01/01 04:04:42;;;;;;;23.48;15.15;;;;;;;;;;5093438;28;20040;-72
2021/01/01 04:07:07;;;;;;;25.55;14.63;;;;;;;;;;5093510;28;20071;-72
2021/01/01 04:09:32;;;;;;;22.27;13.93;;;;;;;;;;5092335;28;20059;-72
2021/01/01 04:11:58;;;;;;;21.10;13.30;;;;;;;;;;5093543;28;20035;-72
2021/01/01 04:14:23;;;;;;;21.77;13.85;;;;;;;;;;5093703;28;20042;-72
2021/01/01 04:16:49;;;;;;;21.27;13.75;;;;;;;;;;5092401;28;20039;-72
2021/01/01 04:19:14;;;;;;;21.23;14.45;;;;;;;;;;5093245;28;20401;-72
2021/01/01 04:21:47;;;;;;;22.50;14.75;;;;;;;;;;5093506;28;20050;-72
2021/01/01 04:24:16;;;;;;;27.85;15.57;;;;;;;;;;5093233;28;20032;-72
2021/01/01 04:26:42;;;;;;;24.80;16.27;;;;;;;;;;5093044;28;20057;-72
2021/01/01 04:29:09;;;;;;;24.38;16.65;;;;;;;;;;5093324;28;20402;-73
2021/01/01 04:31:35;;;;;;;21.98;15.38;;;;;;;;;;5093473;28;20036;-73
2021/01/01 04:34:02;;;;;;;26.77;17.38;;;;;;;;;;5093402;28;20558;-72
2021/01/01 04:36:27;;;;;;;22.77;15.25;;;;;;;;;;5092994;28;20161;-72
2021/01/01 04:38:53;;;;;;;21.70;15.10;;;;;;;;;;5092946;28;20123;-72
2021/01/01 04:41:19;;;;;;;23.20;15.40;;;;;;;;;;5091801;28;20392;-72
2021/01/01 04:43:48;;;;;;;22.98;15.55;;;;;;;;;;5093281;28;20501;-73
2021/01/01 04:46:13;;;;;;;23.52;14.98;;;;;;;;;;5093191;28;20028;-72
2021/01/01 04:48:40;;;;;;;23.52;14.73;;;;;;;;;;5092937;28;20409;-73
2021/01/01 04:51:07;;;;;;;23.50;14.98;;;;;;;;;;5074852;28;20036;-72
2021/01/01 04:53:35;;;;;;;22.67;14.90;;;;;;;;;;5093011;28;20027;-73
2021/01/01 04:56:02;;;;;;;23.95;16.13;;;;;;;;;;5093220;28;20097;-72
2021/01/01 04:58:28;;;;;;;25.80;16.45;;;;;;;;;;5093029;28;20101;-72
2021/01/01 05:00:54;;;;;;;25.33;16.77;;;;;;;;;;5093219;28;20040;-73
2021/01/01 05:03:19;;;;;;;24.27;15.73;;;;;;;;;;5092174;28;20036;-72
2021/01/01 05:05:48;;;;;;;23.75;15.25;;;;;;;;;;5095694;28;20454;-73
2021/01/01 05:08:17;;;;;;;23.13;15.13;;;;;;;;;;5096908;28;20050;-73
2021/01/01 05:10:44;;;;;;;26.15;16.30;;;;;;;;;;5096919;28;20035;-73
2021/01/01 05:13:11;;;;;;;28.15;17.10;;;;;;;;;;5095497;28;20047;-73
2021/01/01 05:15:37;;;;;;;25.75;16.55;;;;;;;;;;5096953;28;20046;-73
2021/01/01 05:18:15;;;;;;;30.10;17.33;;;;;;;;;;5096706;28;20036;-72
2021/01/01 05:20:42;;;;;;;28.15;18.02;;;;;;;;;;5096853;28;20040;-73
2021/01/01 05:23:18;;;;;;;28.13;17.60;;;;;;;;;;5096733;28;20036;-72
2021/01/01 05:25:43;;;;;;;25.70;16.48;;;;;;;;;;5096663;28;20390;-73
2021/01/01 05:28:13;;;;;;;26.25;16.00;;;;;;;;;;5094352;28;20031;-72
2021/01/01 05:30:38;;;;;;;27.33;16.67;;;;;;;;;;5096436;28;20043;-72
2021/01/01 05:33:07;;;;;;;23.65;15.50;;;;;;;;;;5096558;28;20032;-73
2021/01/01 05:35:33;;;;;;;25.60;16.05;;;;;;;;;;5096377;28;20470;-72
2021/01/01 05:38:15;;;;;;;23.00;14.63;;;;;;;;;;5096299;28;20115;-72
2021/01/01 05:40:41;;;;;;;24.00;15.07;;;;;;;;;;5096524;28;20067;-73
2021/01/01 05:43:23;;;;;;;26.77;16.23;;;;;;;;;;5096073;28;20076;-73
2021/01/01 05:45:50;;;;;;;21.98;14.60;;;;;;;;;;5095457;28;20398;-72
2021/01/01 05:48:17;;;;;;;24.25;15.98;;;;;;;;;;5096193;28;20028;-73
2021/01/01 05:50:43;;;;;;;21.80;14.50;;;;;;;;;;5096312;28;20119;-73
2021/01/01 05:53:19;;;;;;;22.88;14.65;;;;;;;;;;5096388;28;20478;-73
2021/01/01 05:55:46;;;;;;;21.45;15.18;;;;;;;;;;5096216;28;20032;-73
2021/01/01 05:58:21;;;;;;;24.58;15.80;;;;;;;;;;5094590;28;20067;-73
2021/01/01 06:00:50;;;;;;;22.77;15.50;;;;;;;;;;5096026;28;20039;-73
2021/01/01 06:03:20;;;;;;;22.83;14.85;;;;;;;;;;5096057;28;20432;-73
2021/01/01 06:05:51;;;;;;;26.70;17.23;;;;;;;;;;5096028;28;20093;-73
2021/01/01 06:08:22;;;;;;;22.80;15.20;;;;;;;;;;5095648;28;20040;-73
2021/01/01 06:10:49;;;;;;;25.67;15.60;;;;;;;;;;5095954;28;20046;-72
2021/01/01 06:13:19;;;;;;;23.45;14.98;;;;;;;;;;5095578;28;20473;-72
2021/01/01 06:15:55;;;;;;;22.35;15.00;;;;;;;;;;5095667;28;20457;-73
2021/01/01 06:18:25;;;;;;;25.10;15.50;;;;;;;;;;5095556;28;20119;-73
2021/01/01 06:20:58;;;;;;;21.05;13.98;;;;;;;;;;5095679;28;20051;-73
2021/01/01 06:23:50;;;;;;;23.35;14.85;;;;;;;;;;5095458;28;20050;-73
2021/01/01 06:26:16;;;;;;;21.30;14.23;;;;;;;;;;5095374;28;20035;-73
2021/01/01 06:28:46;;;;;;;24.30;16.02;;;;;;;;;;5095391;28;20048;-73
2021/01/01 06:31:11;;;;;;;24.85;16.58;;;;;;;;;;5095458;28;20043;-73
2021/01/01 06:33:42;;;;;;;25.75;16.58;;;;;;;;;;5095051;28;20036;-72
2021/01/01 06:36:07;;;;;;;28.52;18.10;;;;;;;;;;5095311;28;20035;-73
2021/01/01 06:38:40;;;;;;;26.98;18.15;;;;;;;;;;5094856;28;20085;-72
2021/01/01 06:41:14;;;;;;;29.70;18.02;;;;;;;;;;5095355;28;20028;-72
2021/01/01 06:43:51;;;;;;;27.23;18.25;;;;;;;;;;5094986;28;20052;-72
2021/01/01 06:46:38;;;;;;;25.60;16.67;;;;;;;;;;5094953;28;20088;-72
2021/01/01 06:49:05;;;;;;;24.33;16.17;;;;;;;;;;5094959;28;20036;-72
2021/01/01 06:51:32;;;;;;;21.95;14.80;;;;;;;;;;5092878;28;20473;-70
2021/01/01 06:54:10;;;;;;;30.88;20.00;;;;;;;;;;5095030;28;20038;-71
2021/01/01 06:56:39;;;;;;;30.52;19.65;;;;;;;;;;5094737;28;20035;-71
2021/01/01 06:59:32;;;;;;;31.27;20.17;;;;;;;;;;5094894;28;20040;-71
2021/01/01 07:02:16;;;;;;;25.85;17.25;;;;;;;;;;5094979;28;20036;-72
2021/01/01 07:04:52;;;;;;;33.42;19.15;;;;;;;;;;5094500;28;20050;-71
2021/01/01 07:07:40;;;;;;;27.10;18.67;;;;;;;;;;5094759;28;20175;-71
2021/01/01 07:10:08;;;;;;;31.13;19.33;;;;;;;;;;5094814;28;20478;-70
2021/01/01 07:12:33;;;;;;;29.65;19.95;;;;;;;;;;5094558;28;20460;-71
2021/01/01 07:14:58;;;;;;;30.48;19.30;;;;;;;;;;5094567;28;20112;-71
2021/01/01 07:17:24;;;;;;;30.95;18.77;;;;;;;;;;5093235;28;20409;-71
2021/01/01 07:19:50;;;;;;;27.58;19.10;;;;;;;;;;5094301;28;20032;-71
2021/01/01 07:22:15;;;;;;;29.98;20.17;;;;;;;;;;5092838;28;20040;-71
2021/01/01 07:24:44;;;;;;;32.83;20.08;;;;;;;;;;5094361;28;20140;-71
2021/01/01 07:27:10;;;;;;;30.40;19.95;;;;;;;;;;5093562;28;20051;-71
2021/01/01 07:29:35;;;;;;;33.15;20.95;;;;;;;;;;5094302;28;20024;-71
2021/01/01 07:32:00;;;;;;;31.38;20.33;;;;;;;;;;5093220;28;20439;-71
2021/01/01 07:34:26;;;;;;;30.42;20.35;;;;;;;;;;5094258;28;20071;-71
2021/01/01 07:36:53;;;;;;;32.75;21.05;;;;;;;;;;5093842;28;20036;-71
2021/01/01 07:39:26;;;;;;;29.13;19.17;;;;;;;;;;5093674;28;20032;-71
2021/01/01 07:42:05;;;;;;;28.85;19.40;;;;;;;;;;5094017;28;20040;-71
2021/01/01 07:44:31;;;;;;;30.33;19.65;;;;;;;;;;5094019;28;20055;-71
2021/01/01 07:46:57;;;;;;;29.73;19.17;;;;;;;;;;5093134;28;20040;-71
2021/01/01 07:49:22;;;;;;;28.63;19.10;;;;;;;;;;5093867;28;20040;-74
2021/01/01 07:51:48;;;;;;;28.58;18.52;;;;;;;;;;5092808;28;20381;-70
2021/01/01 07:54:14;;;;;;;30.02;19.83;;;;;;;;;;5093727;28;20059;-73
2021/01/01 07:56:39;;;;;;;28.50;19.38;;;;;;;;;;5093838;28;20024;-73
2021/01/01 07:59:05;;;;;;;27.25;18.15;;;;;;;;;;5093623;28;20042;-74
2021/01/01 08:01:30;;;;;;;28.33;18.83;;;;;;;;;;5093757;28;20028;-73
2021/01/01 08:03:57;;;;;;;30.67;19.20;;;;;;;;;;5093758;28;20470;-73
2021/01/01 08:06:23;;;;;;;29.85;19.92;;;;;;;;;;5093407;28;20382;-73
2021/01/01 08:08:49;;;;;;;29.17;20.15;;;;;;;;;;5093563;28;20031;-73
2021/01/01 08:11:16;;;;;;;28.30;18.60;;;;;;;;;;5092443;28;20043;-74
2021/01/01 08:13:41;;;;;;;27.52;18.92;;;;;;;;;;5093550;28;20055;-73
2021/01/01 08:16:11;;;;;;;26.95;18.23;;;;;;;;;;5093213;28;20612;-73
2021/01/01 08:18:36;;;;;;;28.67;19.73;;;;;;;;;;5093422;28;20027;-74
2021/01/01 08:21:03;;;;;;;31.65;20.08;;;;;;;;;;5092289;28;20542;-73
2021/01/01 08:23:56;;;;;;;25.85;17.58;;;;;;;;;;5093251;28;20043;-73
2021/01/01 08:26:21;;;;;;;30.33;19.90;;;;;;;;;;5092673;28;20071;-73
2021/01/01 08:28:50;;;;;;;28.90;19.70;;;;;;;;;;5093051;28;20140;-72
2021/01/01 08:31:18;;;;;;;27.02;19.50;;;;;;;;;;5093392;28;20051;-73
2021/01/01 08:33:45;;;;;;;26.60;18.13;;;;;;;;;;5093012;28;20055;-74
2021/01/01 08:36:12;;;;;;;27.40;18.05;;;;;;;;;;5093509;28;20044;-73
2021/01/01 08:38:42;;;;;;;30.17;18.45;;;;;;;;;;5094048;28;20385;-73
2021/01/01 08:41:15;;;;;;;24.17;17.15;;;;;;;;;;5096533;28;20085;-74
2021/01/01 08:43:40;;;;;;;31.35;20.60;;;;;;;;;;5097726;28;20109;-72
2021/01/01 08:46:16;;;;;;;27.85;18.95;;;;;;;;;;5097493;28;20039;-74
2021/01/01 08:48:42;;;;;;;30.42;19.92;;;;;;;;;;5097288;28;20071;-75
2021/01/01 08:51:07;;;;;;;31.48;21.40;;;;;;;;;;5097546;28;20074;-75
2021/01/01 08:53:37;;;;;;;28.30;19.45;;;;;;;;;;5097285;28;20075;-75
2021/01/01 08:56:03;;;;;;;27.63;19.10;;;;;;;;;;5097340;28;20056;-75
2021/01/01 08:58:28;;;;;;;25.33;18.67;;;;;;;;;;5097260;28;20071;-74
2021/01/01 09:00:54;;;;;;;28.23;19.48;;;;;;;;;;5097180;28;20078;-75
2021/01/01 09:03:23;;;;;;;26.27;18.23;;;;;;;;;;5097341;28;20071;-75
2021/01/01 09:05:53;;;;;;;26.80;19.08;;;;;;;;;;5079193;28;20097;-75
2021/01/01 09:08:21;;;;;;;27.27;19.75;;;;;;;;;;5096966;28;20028;-75
2021/01/01 09:10:48;;;;;;;28.55;20.00;;;;;;;;;;5097111;28;20105;-75
2021/01/01 09:13:17;;;;;;;27.65;19.42;;;;;;;;;;5097254;28;20036;-77
2021/01/01 09:15:43;;;;;;;26.95;19.63;;;;;;;;;;5097042;28;20067;-74
2021/01/01 09:18:10;;;;;;;28.77;20.55;;;;;;;;;;5095693;28;20088;-74
2021/01/01 09:20:40;;;;;;;28.02;19.67;;;;;;;;;;5096506;28;20050;-74
2021/01/01 09:23:06;;;;;;;26.88;19.80;;;;;;;;;;5096890;28;20032;-74
2021/01/01 09:25:31;;;;;;;28.45;20.25;;;;;;;;;;5096866;28;20059;-73
2021/01/01 09:27:58;;;;;;;29.50;20.75;;;;;;;;;;5095659;28;20036;-74
2021/01/01 09:30:26;;;;;;;26.75;19.42;;;;;;;;;;5096851;28;20043;-74
2021/01/01 09:32:54;;;;;;;25.45;19.10;;;;;;;;;;5095408;28;20059;-74
2021/01/01 09:35:20;;;;;;;25.40;19.33;;;;;;;;;;5096577;28;20040;-74
2021/01/01 09:37:49;;;;;;;26.38;19.95;;;;;;;;;;5096397;28;20074;-74
2021/01/01 09:40:16;;;;;;;28.63;19.88;;;;;;;;;;5097026;28;20115;-74
2021/01/01 09:42:41;;;;;;;30.40;21.38;;;;;;;;;;5095308;28;20043;-74
2021/01/01 09:45:07;;;;;;;32.05;21.45;;;;;;;;;;5095768;28;20053;-74
2021/01/01 09:47:33;;;;;;;30.35;21.10;;;;;;;;;;5096340;28;20386;-74
2021/01/01 09:49:58;;;;;;;29.05;20.73;;;;;;;;;;5095826;28;20039;-74
2021/01/01 09:52:23;;;;;;;32.92;21.42;;;;;;;;;;5096416;28;20042;-73
2021/01/01 09:54:49;;;;;;;30.15;21.52;;;;;;;;;;5096226;28;20062;-74
2021/01/01 09:57:14;;;;;;;29.48;21.75;;;;;;;;;;5096543;28;20043;-75
2021/01/01 09:59:40;;;;;;;31.35;22.60;;;;;;;;;;5096142;28;20114;-75
2021/01/01 10:02:06;;;;;;;33.53;23.20;;;;;;;;;;5096215;28;20040;-75
2021/01/01 10:04:31;;;;;;;33.08;21.85;;;;;;;;;;5097149;28;20136;-75
2021/01/01 10:06:56;;;;;;;28.83;20.77;;;;;;;;;;5096393;28;20036;-73
2021/01/01 10:09:22;;;;;;;30.15;20.98;;;;;;;;;;5096184;28;20040;-73
2021/01/01 10:11:49;;;;;;;32.30;21.23;;;;;;;;;;5095963;28;20077;-72
2021/01/01 10:14:15;;;;;;;34.25;22.73;;;;;;;;;;5095932;28;20114;-73
2021/01/01 10:16:40;;;;;;;36.63;23.77;;;;;;;;;;5095231;28;20135;-72
2021/01/01 10:19:05;;;;;;;33.28;23.05;;;;;;;;;;5096282;28;20470;-71
2021/01/01 10:21:32;;;;;;;34.00;22.55;;;;;;;;;;5095162;28;20516;-72
2021/01/01 10:23:58;;;;;;;35.53;24.25;;;;;;;;;;5096899;28;20040;-72
2021/01/01 10:26:23;;;;;;;35.55;23.20;;;;;;;;;;5097528;28;20525;-73
2021/01/01 10:28:48;;;;;;;38.63;24.23;;;;;;;;;;5097927;28;20111;-72
2021/01/01 10:31:14;;;;;;;33.85;22.40;;;;;;;;;;5098246;28;20108;-73
2021/01/01 10:33:39;;;;;;;33.47;23.00;;;;;;;;;;5099626;28;20358;-74
2021/01/01 10:36:06;;;;;;;34.05;22.50;;;;;;;;;;5098358;28;20089;-74
2021/01/01 10:38:31;;;;;;;37.63;23.55;;;;;;;;;;5095144;28;20036;-74
2021/01/01 10:40:57;;;;;;;32.45;22.80;;;;;;;;;;5086214;28;20081;-73
2021/01/01 10:43:22;;;;;;;33.85;21.88;;;;;;;;;;5096399;28;20489;-74
2021/01/01 10:45:47;;;;;;;36.72;22.67;;;;;;;;;;5097647;28;20042;-74
2021/01/01 10:48:13;;;;;;;32.60;22.58;;;;;;;;;;5095874;28;20032;-74
2021/01/01 10:50:38;;;;;;;31.90;22.08;;;;;;;;;;5095851;28;20028;-75
2021/01/01 10:53:03;;;;;;;33.40;22.20;;;;;;;;;;5095547;28;20194;-75
2021/01/01 10:55:31;;;;;;;32.80;21.73;;;;;;;;;;5096861;28;20374;-75
2021/01/01 10:57:56;;;;;;;31.35;20.63;;;;;;;;;;5096820;28;20047;-73
2021/01/01 11:00:22;;;;;;;32.83;22.17;;;;;;;;;;5096093;28;20031;-76
2021/01/01 11:02:47;;;;;;;31.58;21.25;;;;;;;;;;5095571;28;20064;-73
2021/01/01 11:05:13;;;;;;;31.92;22.13;;;;;;;;;;5095393;28;20036;-74
2021/01/01 11:07:38;;;;;;;30.75;20.60;;;;;;;;;;5095492;28;20454;-72
2021/01/01 11:10:04;;;;;;;32.00;21.08;;;;;;;;;;5095346;28;20509;-73
2021/01/01 11:12:32;;;;;;;31.98;22.00;;;;;;;;;;5095039;28;20044;-73
2021/01/01 12:23:58;;;;;;;28.23;18.38;;;;;;;;;;5077841;28;20094;-83
2021/01/01 12:26:24;;;;;;;27.38;17.55;;;;;;;;;;5092924;28;20046;-84
2021/01/01 12:28:56;;;;;;;25.88;16.85;;;;;;;;;;5094852;28;20028;-79
2021/01/01 12:31:22;;;;;;;25.42;16.02;;;;;;;;;;5085106;28;20059;-83
2021/01/01 12:33:48;;;;;;;26.50;16.25;;;;;;;;;;5092074;28;20118;-80
2021/01/01 12:36:13;;;;;;;22.20;14.88;;;;;;;;;;5085357;28;20089;-73
2021/01/01 12:38:39;;;;;;;24.27;15.45;;;;;;;;;;5084568;28;20032;-75
2021/01/01 12:41:04;;;;;;;19.98;13.93;;;;;;;;;;5077852;28;20098;-72
2021/01/01 12:43:29;;;;;;;21.05;14.82;;;;;;;;;;5083266;28;20044;-73
2021/01/01 12:45:55;;;;;;;21.00;14.13;;;;;;;;;;5084803;28;20036;-73
2021/01/01 12:48:20;;;;;;;23.63;15.13;;;;;;;;;;5092217;28;20028;-73
2021/01/01 12:50:46;;;;;;;21.00;14.45;;;;;;;;;;5092147;28;20040;-73
2021/01/01 12:53:11;;;;;;;24.77;14.43;;;;;;;;;;5093158;28;20036;-73
2021/01/01 12:55:37;;;;;;;21.90;14.65;;;;;;;;;;5093074;28;20049;-73
2021/01/01 12:58:05;;;;;;;23.13;14.10;;;;;;;;;;5093151;28;20044;-73
2021/01/01 13:00:30;;;;;;;20.95;13.70;;;;;;;;;;5093051;28;20043;-73
2021/01/01 13:02:56;;;;;;;21.05;12.77;;;;;;;;;;5093280;28;20031;-73
2021/01/01 13:05:22;;;;;;;18.83;12.48;;;;;;;;;;5093200;28;20026;-73
2021/01/01 13:07:48;;;;;;;20.00;12.27;;;;;;;;;;5091681;28;20512;-73
2021/01/01 13:10:13;;;;;;;20.92;11.38;;;;;;;;;;5091730;28;20040;-73
2021/01/01 13:12:39;;;;;;;22.38;11.32;;;;;;;;;;5093035;28;20036;-73
2021/01/01 13:15:05;;;;;;;21.05;11.93;;;;;;;;;;5092908;28;20032;-74
2021/01/01 13:17:32;;;;;;;20.02;12.05;;;;;;;;;;5091997;28;20040;-73
2021/01/01 13:19:58;;;;;;;21.50;11.68;;;;;;;;;;5091738;28;20032;-73
2021/01/01 13:22:23;;;;;;;17.33;11.30;;;;;;;;;;5092859;28;20032;-73
2021/01/01 13:24:49;;;;;;;17.75;10.63;;;;;;;;;;5092193;28;20504;-73
2021/01/01 13:27:15;;;;;;;17.45;10.20;;;;;;;;;;5088720;28;20039;-73
2021/01/01 13:29:40;;;;;;;22.75;10.90;;;;;;;;;;5094920;28;20032;-73
2021/01/01 13:32:06;;;;;;;17.75;10.70;;;;;;;;;;5094509;28;20028;-73
2021/01/01 13:34:31;;;;;;;17.67;10.00;;;;;;;;;;5094234;28;20073;-73
2021/01/01 13:36:57;;;;;;;16.80;10.70;;;;;;;;;;5096201;28;20117;-73
2021/01/01 13:39:22;;;;;;;17.58;10.73;;;;;;;;;;5096246;28;20059;-73
2021/01/01 13:41:47;;;;;;;16.70;10.45;;;;;;;;;;5096443;28;20043;-73
2021/01/01 13:44:13;;;;;;;15.93;9.90;;;;;;;;;;5096478;28;20121;-73
2021/01/01 13:46:38;;;;;;;20.30;11.02;;;;;;;;;;5095378;28;20031;-73
2021/01/01 13:49:05;;;;;;;16.52;10.38;;;;;;;;;;5096371;28;20024;-74
2021/01/01 13:51:33;;;;;;;16.35;11.05;;;;;;;;;;5096344;28;20075;-73
2021/01/01 13:53:58;;;;;;;15.98;10.20;;;;;;;;;;5096341;28;20443;-74
2021/01/01 13:56:24;;;;;;;15.35;9.25;;;;;;;;;;5094891;28;20081;-73
2021/01/01 13:58:50;;;;;;;20.00;10.50;;;;;;;;;;5096026;28;20031;-74
2021/01/01 14:01:17;;;;;;;17.20;10.95;;;;;;;;;;5096266;28;20450;-73
2021/01/01 14:03:42;;;;;;;17.02;10.95;;;;;;;;;;5095978;28;20036;-73
2021/01/01 14:06:08;;;;;;;25.23;12.23;;;;;;;;;;5095899;28;20070;-74
2021/01/01 14:08:33;;;;;;;21.48;11.93;;;;;;;;;;5095953;28;20028;-73
2021/01/01 14:10:59;;;;;;;18.05;11.80;;;;;;;;;;5096047;28;20039;-73
2021/01/01 14:13:24;;;;;;;20.25;12.32;;;;;;;;;;5095799;28;20493;-73
2021/01/01 14:15:50;;;;;;;18.88;12.35;;;;;;;;;;5095845;28;20489;-73
2021/01/01 14:18:15;;;;;;;22.67;12.55;;;;;;;;;;5094792;28;20477;-73
2021/01/01 14:20:42;;;;;;;19.45;12.65;;;;;;;;;;5094711;28;20116;-73
2021/01/01 14:23:07;;;;;;;22.17;13.18;;;;;;;;;;5093347;28;20039;-75
2021/01/01 14:25:33;;;;;;;25.27;14.90;;;;;;;;;;5083722;28;20061;-73
2021/01/01 14:27:58;;;;;;;23.05;12.73;;;;;;;;;;5086687;28;20034;-74
2021/01/01 14:30:24;;;;;;;18.40;11.68;;;;;;;;;;5087051;28;20034;-74
2021/01/01 14:32:49;;;;;;;21.35;12.45;;;;;;;;;;5085106;28;20028;-74
2021/01/01 14:35:15;;;;;;;21.52;12.93;;;;;;;;;;5082185;28;20028;-74
2021/01/01 14:37:44;;;;;;;23.13;13.30;;;;;;;;;;5081504;28;20107;-74
2021/01/01 14:40:11;;;;;;;24.52;12.75;;;;;;;;;;5084731;28;20717;-72
2021/01/01 14:42:38;;;;;;;21.55;12.02;;;;;;;;;;5085695;28;20072;-74
2021/01/01 14:45:07;;;;;;;19.67;12.27;;;;;;;;;;5083683;28;20494;-74
2021/01/01 14:47:32;;;;;;;17.25;10.98;;;;;;;;;;5083157;28;20028;-74
2021/01/01 14:49:58;;;;;;;22.10;12.27;;;;;;;;;;5081930;28;20041;-73
2021/01/01 14:52:23;;;;;;;25.05;12.93;;;;;;;;;;5084456;28;20036;-73
2021/01/01 14:54:49;;;;;;;19.90;12.45;;;;;;;;;;5089464;28;20411;-73
2021/01/01 14:57:14;;;;;;;21.33;12.85;;;;;;;;;;5094235;28;20024;-73
2021/01/01 14:59:41;;;;;;;21.13;12.45;;;;;;;;;;5094340;28;20089;-71
2021/01/01 15:02:07;;;;;;;21.75;12.48;;;;;;;;;;5094319;28;20127;-71
2021/01/01 15:04:32;;;;;;;19.50;12.23;;;;;;;;;;5094349;28;20126;-71
2021/01/01 15:06:58;;;;;;;22.45;12.48;;;;;;;;;;5094239;28;20063;-71
2021/01/01 15:09:24;;;;;;;19.73;10.85;;;;;;;;;;5094185;28;20047;-71
2021/01/01 15:11:50;;;;;;;20.67;12.68;;;;;;;;;;5094182;28;20477;-71
2021/01/01 15:14:16;;;;;;;20.58;12.63;;;;;;;;;;5094208;28;20135;-71
2021/01/01 15:16:42;;;;;;;21.25;11.52;;;;;;;;;;5094096;28;20090;-71
2021/01/01 15:19:07;;;;;;;21.25;12.25;;;;;;;;;;5093848;28;20032;-72
2021/01/01 15:21:33;;;;;;;22.23;12.25;;;;;;;;;;5093911;28;20094;-71
2021/01/01 15:24:00;;;;;;;20.40;11.82;;;;;;;;;;5094496;28;20051;-71